createdAt,value
2022-11-21T00:00:49.759Z,97521.00
2022-11-21T00:03:19.638Z,97512.00
2022-11-21T00:05:51.379Z,97509.00
2022-11-21T00:08:24.684Z,97522.00
2022-11-21T00:10:54.528Z,97516.00
2022-11-21T00:13:24.549Z,97515.00
2022-11-21T00:15:54.408Z,97512.00
2022-11-21T00:18:24.245Z,97492.00
2022-11-21T00:20:54.142Z,97495.00
2022-11-21T00:23:28.422Z,97502.00
2022-11-21T00:25:58.239Z,97503.00
2022-11-21T00:28:28.102Z,97495.00
2022-11-21T00:30:57.941Z,97497.00
2022-11-21T00:33:27.731Z,97484.00
2022-11-21T00:35:57.957Z,97478.00
2022-11-21T00:38:30.431Z,97461.00
2022-11-21T00:41:00.248Z,97462.00
2022-11-21T00:43:30.080Z,97465.00
2022-11-21T00:46:02.953Z,97464.00
2022-11-21T00:48:33.811Z,97469.00
2022-11-21T00:51:03.936Z,97474.00
2022-11-21T00:53:37.932Z,97467.00
2022-11-21T00:56:08.404Z,97457.00
2022-11-21T00:58:38.370Z,97455.00
2022-11-21T01:01:09.556Z,97471.00
2022-11-21T01:03:39.834Z,97462.00
2022-11-21T01:06:11.512Z,97466.00
2022-11-21T01:08:46.173Z,97463.00
2022-11-21T01:11:17.875Z,97455.00
2022-11-21T01:13:48.382Z,97451.00
2022-11-21T01:16:20.484Z,97453.00
2022-11-21T01:18:50.920Z,97434.00
2022-11-21T01:21:24.007Z,97436.00
2022-11-21T01:23:56.968Z,97431.00
2022-11-21T01:26:28.542Z,97433.00
2022-11-21T01:28:58.853Z,97431.00
2022-11-21T01:31:30.665Z,97440.00
2022-11-21T01:34:01.776Z,97430.00
2022-11-21T01:36:33.173Z,97426.00
2022-11-21T01:39:07.724Z,97428.00
2022-11-21T01:41:40.895Z,97415.00
2022-11-21T01:44:16.972Z,97410.00
2022-11-21T01:46:46.957Z,97405.00
2022-11-21T01:49:19.339Z,97390.00
2022-11-21T01:51:52.633Z,97371.00
2022-11-21T01:54:29.727Z,97380.00
2022-11-21T01:57:04.761Z,97371.00
2022-11-21T01:59:37.816Z,97374.00
2022-11-21T02:02:09.758Z,97378.00
2022-11-21T02:04:40.186Z,97377.00
2022-11-21T02:07:10.443Z,97372.00
2022-11-21T02:09:45.985Z,97375.00
2022-11-21T02:12:19.693Z,97371.00
2022-11-21T02:14:50.798Z,97360.00
2022-11-21T02:17:21.755Z,97366.00
2022-11-21T02:19:55.618Z,97355.00
2022-11-21T02:22:35.388Z,97347.00
2022-11-21T02:25:11.631Z,97348.00
2022-11-21T02:27:42.325Z,97348.00
2022-11-21T02:30:13.767Z,97349.00
2022-11-21T02:32:47.200Z,97337.00
2022-11-21T02:35:18.551Z,97328.00
2022-11-21T02:37:50.105Z,97326.00
2022-11-21T02:40:26.831Z,97322.00
2022-11-21T02:43:03.198Z,97315.00
2022-11-21T02:45:34.966Z,97297.00
2022-11-21T02:48:04.811Z,97305.00
2022-11-21T02:50:36.694Z,97300.00
2022-11-21T02:53:07.721Z,97286.00
2022-11-21T02:55:40.201Z,97279.00
2022-11-21T02:58:10.082Z,97272.00
2022-11-21T03:00:41.325Z,97262.00
2022-11-21T03:03:11.581Z,97256.00
2022-11-21T03:05:42.296Z,97248.00
2022-11-21T03:08:12.467Z,97245.00
2022-11-21T03:10:44.887Z,97246.00
2022-11-21T03:13:14.730Z,97238.00
2022-11-21T03:15:44.591Z,97249.00
2022-11-21T03:18:14.430Z,97254.00
2022-11-21T03:20:44.398Z,97246.00
2022-11-21T03:23:14.310Z,97254.00
2022-11-21T03:25:46.761Z,97241.00
2022-11-21T03:28:16.590Z,97252.00
2022-11-21T03:30:46.430Z,97232.00
2022-11-21T03:33:16.943Z,97242.00
2022-11-21T03:35:47.832Z,97225.00
2022-11-21T03:38:17.732Z,97221.00
2022-11-21T03:40:50.150Z,97228.00
2022-11-21T03:43:19.996Z,97227.00
2022-11-21T03:45:50.698Z,97217.00
2022-11-21T03:48:20.601Z,97217.00
2022-11-21T03:50:50.509Z,97228.00
2022-11-21T03:53:20.853Z,97214.00
2022-11-21T03:55:53.272Z,97228.00
2022-11-21T03:58:24.184Z,97213.00
2022-11-21T04:00:55.016Z,97216.00
2022-11-21T04:03:24.891Z,97221.00
2022-11-21T04:05:54.732Z,97213.00
2022-11-21T04:08:25.450Z,97205.00
2022-11-21T04:10:57.967Z,97204.00
2022-11-21T04:13:28.150Z,97199.00
2022-11-21T04:15:58.352Z,97194.00
2022-11-21T04:18:28.434Z,97191.00
2022-11-21T04:21:01.812Z,97193.00
2022-11-21T04:23:31.896Z,97182.00
2022-11-21T04:26:05.519Z,97187.00
2022-11-21T04:28:35.394Z,97163.00
2022-11-21T04:31:10.200Z,97170.00
2022-11-21T04:33:42.291Z,97180.00
2022-11-21T04:36:12.448Z,97172.00
2022-11-21T04:38:42.553Z,97168.00
2022-11-21T04:41:15.259Z,97157.00
2022-11-21T04:43:45.171Z,97150.00
2022-11-21T04:46:15.583Z,97140.00
2022-11-21T04:48:46.215Z,97148.00
2022-11-21T04:51:16.012Z,97150.00
2022-11-21T04:53:45.858Z,97159.00
2022-11-21T04:56:18.315Z,97149.00
2022-11-21T04:58:48.180Z,97149.00
2022-11-21T05:01:18.025Z,97148.00
2022-11-21T05:03:47.923Z,97128.00
2022-11-21T05:06:17.818Z,97124.00
2022-11-21T05:08:51.743Z,97107.00
2022-11-21T05:11:38.348Z,97109.00
2022-11-21T05:14:08.195Z,97118.00
2022-11-21T05:16:38.524Z,97113.00
2022-11-21T05:19:09.235Z,97113.00
2022-11-21T05:21:39.464Z,97108.00
2022-11-21T05:24:10.596Z,97101.00
2022-11-21T05:26:43.878Z,97098.00
2022-11-21T05:29:13.845Z,97095.00
2022-11-21T05:31:43.651Z,97096.00
2022-11-21T05:34:13.655Z,97082.00
2022-11-21T05:36:43.674Z,97084.00
2022-11-21T05:39:13.504Z,97079.00
2022-11-21T05:41:46.811Z,97081.00
2022-11-21T05:44:14.599Z,97074.00
2022-11-21T05:46:44.784Z,97062.00
2022-11-21T05:49:15.180Z,97071.00
2022-11-21T05:51:46.112Z,97056.00
2022-11-21T05:54:17.856Z,97058.00
2022-11-21T05:56:50.293Z,97061.00
2022-11-21T05:59:20.530Z,97054.00
2022-11-21T06:02:03.477Z,97053.00
2022-11-21T06:04:33.468Z,97056.00
2022-11-21T06:07:06.446Z,97062.00
2022-11-21T06:09:51.107Z,97057.00
2022-11-21T06:12:25.697Z,97063.00
2022-11-21T06:14:56.908Z,97051.00
2022-11-21T06:17:28.218Z,97053.00
2022-11-21T06:19:58.779Z,97056.00
2022-11-21T06:22:29.717Z,97063.00
2022-11-21T06:25:00.401Z,97056.00
2022-11-21T06:27:34.456Z,97036.00
2022-11-21T06:30:04.277Z,97048.00
2022-11-21T06:32:39.687Z,97038.00
2022-11-21T06:35:11.227Z,97038.00
2022-11-21T06:37:41.136Z,97027.00
2022-11-21T06:40:13.733Z,97019.00
2022-11-21T06:42:47.413Z,97016.00
2022-11-21T06:45:18.460Z,97021.00
2022-11-21T06:47:49.209Z,97034.00
2022-11-21T06:50:20.351Z,97032.00
2022-11-21T06:52:50.790Z,97025.00
2022-11-21T06:55:21.547Z,97022.00
2022-11-21T06:57:54.552Z,97022.00
2022-11-21T07:00:25.496Z,97040.00
2022-11-21T07:03:01.633Z,97039.00
2022-11-21T07:05:32.823Z,97044.00
2022-11-21T07:08:03.390Z,97043.00
2022-11-21T07:10:33.973Z,97031.00
2022-11-21T07:13:19.524Z,97030.00
2022-11-21T07:15:51.476Z,97029.00
2022-11-21T07:18:22.401Z,97011.00
2022-11-21T07:20:52.937Z,97007.00
2022-11-21T07:23:23.873Z,97002.00
2022-11-21T07:25:54.617Z,96988.00
2022-11-21T07:28:27.231Z,96976.00
2022-11-21T07:31:00.565Z,96993.00
2022-11-21T07:33:31.557Z,96980.00
2022-11-21T07:36:02.432Z,96972.00
2022-11-21T07:38:32.838Z,96992.00
2022-11-21T07:41:03.502Z,96989.00
2022-11-21T07:43:35.939Z,96991.00
2022-11-21T07:46:07.319Z,96986.00
2022-11-21T07:48:37.484Z,96980.00
2022-11-21T07:51:10.302Z,96993.00
2022-11-21T07:53:40.301Z,96991.00
2022-11-21T07:56:11.359Z,96976.00
2022-11-21T07:58:45.096Z,97023.00
2022-11-21T08:01:16.089Z,97008.00
2022-11-21T08:03:45.986Z,96987.00
2022-11-21T08:06:16.077Z,97010.00
2022-11-21T08:08:46.375Z,97006.00
2022-11-21T08:11:16.244Z,97001.00
2022-11-21T08:13:49.744Z,97006.00
2022-11-21T08:16:19.617Z,97002.00
2022-11-21T08:18:51.261Z,97006.00
2022-11-21T08:21:21.132Z,97005.00
2022-11-21T08:23:52.349Z,97015.00
2022-11-21T08:26:22.435Z,97007.00
2022-11-21T08:28:59.731Z,97031.00
2022-11-21T08:31:29.987Z,97034.00
2022-11-21T08:34:01.044Z,97034.00
2022-11-21T08:36:32.324Z,97047.00
2022-11-21T08:39:03.297Z,97048.00
2022-11-21T08:41:46.753Z,97054.00
2022-11-21T08:44:19.352Z,97067.00
2022-11-21T08:46:49.558Z,97059.00
2022-11-21T08:49:19.575Z,97049.00
2022-11-21T08:51:50.635Z,97054.00
2022-11-21T08:54:21.271Z,97060.00
2022-11-21T08:56:52.540Z,97042.00
2022-11-21T08:59:24.962Z,97054.00
2022-11-21T09:01:55.825Z,97048.00
2022-11-21T09:04:25.818Z,97037.00
2022-11-21T09:06:56.736Z,97042.00
2022-11-21T09:09:26.594Z,97040.00
2022-11-21T09:11:56.493Z,97052.00
2022-11-21T09:14:41.304Z,97056.00
2022-11-21T09:17:28.136Z,97059.00
2022-11-21T09:19:58.536Z,97065.00
2022-11-21T09:22:28.754Z,97064.00
2022-11-21T09:25:02.004Z,97064.00
2022-11-21T09:27:33.324Z,97072.00
2022-11-21T09:30:05.970Z,97073.00
2022-11-21T09:32:37.136Z,97076.00
2022-11-21T09:35:08.788Z,97069.00
2022-11-21T09:37:40.497Z,97081.00
2022-11-21T09:40:15.816Z,97084.00
2022-11-21T09:43:16.958Z,97092.00
2022-11-21T09:45:52.668Z,97094.00
2022-11-21T09:48:27.130Z,97075.00
2022-11-21T09:50:59.129Z,97091.00
2022-11-21T09:53:31.600Z,97084.00
2022-11-21T09:56:04.094Z,97090.00
2022-11-21T09:58:38.104Z,97085.00
2022-11-21T10:01:14.192Z,97084.00
2022-11-21T10:03:47.642Z,97083.00
2022-11-21T10:06:22.572Z,97072.00
2022-11-21T10:09:00.880Z,97080.00
2022-11-21T10:12:00.251Z,97073.00
2022-11-21T10:14:41.841Z,97085.00
2022-11-21T10:17:22.060Z,97085.00
2022-11-21T10:20:02.727Z,97088.00
2022-11-21T10:22:45.342Z,97089.00
2022-11-21T10:25:19.773Z,97080.00
2022-11-21T10:27:55.702Z,97070.00
2022-11-21T10:30:26.549Z,97070.00
2022-11-21T10:33:01.848Z,97075.00
2022-11-21T10:35:36.160Z,97082.00
2022-11-21T10:38:14.778Z,97088.00
2022-11-21T10:40:47.964Z,97080.00
2022-11-21T10:43:39.944Z,97082.00
2022-11-21T10:46:10.419Z,97087.00
2022-11-21T10:48:43.909Z,97085.00
2022-11-21T10:51:28.861Z,97092.00
2022-11-21T10:54:21.695Z,97087.00
2022-11-21T10:56:51.593Z,97096.00
2022-11-21T10:59:30.873Z,97097.00
2022-11-21T11:02:03.767Z,97102.00
2022-11-21T11:04:45.879Z,97092.00
2022-11-21T11:07:27.342Z,97100.00
2022-11-21T11:10:19.690Z,97092.00
2022-11-21T11:13:30.731Z,97097.00
2022-11-21T11:15:58.047Z,97088.00
2022-11-21T11:18:28.590Z,97098.00
2022-11-21T11:21:17.577Z,97091.00
2022-11-21T11:23:48.127Z,97095.00
2022-11-21T11:26:25.377Z,97069.00
2022-11-21T11:28:56.986Z,97085.00
2022-11-21T11:31:27.137Z,97082.00
2022-11-21T11:33:58.896Z,97100.00
2022-11-21T11:36:44.586Z,97110.00
2022-11-21T11:39:24.852Z,97125.00
2022-11-21T11:42:23.402Z,97129.00
2022-11-21T11:45:16.584Z,97137.00
2022-11-21T11:47:54.851Z,97137.00
2022-11-21T11:50:28.012Z,97147.00
2022-11-21T11:53:07.065Z,97140.00
2022-11-21T11:55:40.317Z,97143.00
2022-11-21T11:58:18.285Z,97149.00
2022-11-21T12:00:51.449Z,97153.00
2022-11-21T12:03:24.488Z,97155.00
2022-11-21T12:06:07.693Z,97156.00
2022-11-21T12:08:49.693Z,97162.00
2022-11-21T12:11:39.596Z,97156.00
2022-11-21T12:14:37.090Z,97168.00
2022-11-21T12:17:09.597Z,97168.00
2022-11-21T12:19:41.168Z,97160.00
2022-11-21T12:22:12.740Z,97174.00
2022-11-21T12:24:45.239Z,97171.00
2022-11-21T12:27:23.960Z,97169.00
2022-11-21T12:30:06.394Z,97164.00
2022-11-21T12:32:47.817Z,97157.00
2022-11-21T12:35:38.841Z,97153.00
2022-11-21T12:38:20.018Z,97146.00
2022-11-21T12:41:01.198Z,97151.00
2022-11-21T12:43:34.968Z,97140.00
2022-11-21T12:46:13.785Z,97129.00
2022-11-21T12:49:05.851Z,97125.00
2022-11-21T12:52:11.968Z,97125.00
2022-11-21T12:55:06.198Z,97116.00
2022-11-21T12:57:50.589Z,97116.00
2022-11-21T13:00:26.384Z,97157.00
2022-11-21T13:03:21.112Z,97159.00
2022-11-21T13:05:53.019Z,97158.00
2022-11-21T13:08:27.163Z,97161.00
2022-11-21T13:11:17.451Z,97168.00
2022-11-21T13:13:53.123Z,97161.00
2022-11-21T13:16:37.446Z,97163.00
2022-11-21T13:19:24.372Z,97163.00
2022-11-21T13:21:56.599Z,97167.00
2022-11-21T13:24:56.482Z,97179.00
2022-11-21T13:27:38.160Z,97181.00
2022-11-21T13:30:25.955Z,97191.00
2022-11-21T13:32:56.769Z,97192.00
2022-11-21T13:36:02.945Z,97192.00
2022-11-21T13:38:34.031Z,97192.00
2022-11-21T13:41:16.264Z,97190.00
2022-11-21T13:43:46.059Z,97190.00
2022-11-21T13:47:10.495Z,97184.00
2022-11-21T13:49:47.143Z,97198.00
2022-11-21T13:52:26.162Z,97205.00
2022-11-21T13:55:11.587Z,97193.00
2022-11-21T13:57:53.214Z,97195.00
2022-11-21T14:00:39.673Z,97197.00
2022-11-21T14:03:56.974Z,97216.00
2022-11-21T14:06:39.172Z,97213.00
2022-11-21T14:09:28.768Z,97216.00
2022-11-21T14:12:01.201Z,97216.00
2022-11-21T14:14:34.534Z,97221.00
2022-11-21T14:17:25.782Z,97227.00
2022-11-21T14:20:00.884Z,97223.00
2022-11-21T14:22:37.017Z,97219.00
2022-11-21T14:25:13.089Z,97220.00
2022-11-21T14:27:45.653Z,97221.00
2022-11-21T14:30:35.440Z,97231.00
2022-11-21T14:33:24.762Z,97232.00
2022-11-21T14:35:57.692Z,97229.00
2022-11-21T14:38:28.643Z,97236.00
2022-11-21T14:41:40.546Z,97238.00
2022-11-21T14:44:20.161Z,97239.00
2022-11-21T14:46:50.956Z,97234.00
2022-11-21T14:49:38.947Z,97239.00
2022-11-21T14:52:22.670Z,97244.00
2022-11-21T14:57:46.592Z,97245.00
2022-11-21T15:00:51.509Z,97258.00
2022-11-21T15:03:22.093Z,97256.00
2022-11-21T15:06:04.115Z,97270.00
2022-11-21T15:09:23.583Z,97270.00
2022-11-21T15:11:36.430Z,97260.00
2022-11-21T15:14:15.856Z,97270.00
2022-11-21T15:16:49.202Z,97273.00
2022-11-21T15:19:25.180Z,97262.00
2022-11-21T15:21:57.181Z,97272.00
2022-11-21T15:24:43.255Z,97291.00
2022-11-21T15:27:35.408Z,97296.00
2022-11-21T15:30:08.699Z,97304.00
2022-11-21T15:33:03.112Z,97301.00
2022-11-21T15:35:50.058Z,97289.00
2022-11-21T15:38:27.872Z,97294.00
2022-11-21T15:41:06.121Z,97299.00
2022-11-21T15:43:37.528Z,97295.00
2022-11-21T15:46:12.908Z,97294.00
2022-11-21T15:48:42.778Z,97305.00
2022-11-21T15:51:14.637Z,97294.00
2022-11-21T15:53:44.683Z,97299.00
2022-11-21T15:56:22.808Z,97302.00
2022-11-21T15:58:53.085Z,97305.00
2022-11-21T16:01:25.257Z,97297.00
2022-11-21T16:03:57.014Z,97313.00
2022-11-21T16:06:27.781Z,97308.00
2022-11-21T16:08:57.587Z,97316.00
2022-11-21T16:11:31.840Z,97301.00
2022-11-21T16:14:03.312Z,97299.00
2022-11-21T16:16:39.786Z,97302.00
2022-11-21T16:19:13.276Z,97303.00
2022-11-21T16:21:43.422Z,97296.00
2022-11-21T16:24:13.765Z,97294.00
2022-11-21T16:26:47.051Z,97295.00
2022-11-21T16:29:17.747Z,97289.00
2022-11-21T16:31:49.010Z,97290.00
2022-11-21T16:34:22.701Z,97297.00
2022-11-21T16:36:52.682Z,97297.00
2022-11-21T16:39:22.940Z,97295.00
2022-11-21T16:41:55.709Z,97297.00
2022-11-21T16:44:27.290Z,97300.00
2022-11-21T16:46:57.107Z,97300.00
2022-11-21T16:49:27.294Z,97298.00
2022-11-21T16:51:59.117Z,97293.00
2022-11-21T16:54:29.380Z,97305.00
2022-11-21T16:57:02.780Z,97293.00
2022-11-21T16:59:32.599Z,97298.00
2022-11-21T17:02:02.862Z,97295.00
2022-11-21T17:04:35.224Z,97297.00
2022-11-21T17:07:05.405Z,97305.00
2022-11-21T17:09:35.426Z,97294.00
2022-11-21T17:12:09.205Z,97300.00
2022-11-21T17:14:39.029Z,97302.00
2022-11-21T17:17:09.961Z,97307.00
2022-11-21T17:19:39.868Z,97300.00
2022-11-21T17:22:10.342Z,97308.00
2022-11-21T17:24:40.269Z,97312.00
2022-11-21T17:27:12.837Z,97312.00
2022-11-21T17:29:43.335Z,97314.00
2022-11-21T17:32:13.949Z,97306.00
2022-11-21T17:34:43.783Z,97313.00
2022-11-21T17:37:14.326Z,97312.00
2022-11-21T17:39:45.627Z,97306.00
2022-11-21T17:42:19.611Z,97313.00
2022-11-21T17:44:49.462Z,97309.00
2022-11-21T17:47:19.464Z,97318.00
2022-11-21T17:49:49.905Z,97305.00
2022-11-21T17:52:19.862Z,97296.00
2022-11-21T17:54:49.691Z,97293.00
2022-11-21T17:57:22.104Z,97283.00
2022-11-21T17:59:52.011Z,97289.00
2022-11-21T18:02:22.540Z,97291.00
2022-11-21T18:04:52.510Z,97302.00
2022-11-21T18:07:23.456Z,97306.00
2022-11-21T18:09:53.371Z,97307.00
2022-11-21T18:12:25.841Z,97308.00
2022-11-21T18:14:55.688Z,97311.00
2022-11-21T18:17:25.541Z,97301.00
2022-11-21T18:19:55.474Z,97302.00
2022-11-21T18:22:29.495Z,97315.00
2022-11-21T18:24:59.712Z,97315.00
2022-11-21T18:27:32.723Z,97303.00
2022-11-21T18:30:02.594Z,97306.00
2022-11-21T18:32:32.407Z,97306.00
2022-11-21T18:35:02.383Z,97303.00
2022-11-21T18:37:33.000Z,97299.00
2022-11-21T18:40:02.874Z,97298.00
2022-11-21T18:42:37.069Z,97291.00
2022-11-21T18:45:07.926Z,97275.00
2022-11-21T18:47:38.292Z,97283.00
2022-11-21T18:50:09.350Z,97291.00
2022-11-21T18:52:43.599Z,97285.00
2022-11-21T18:55:16.154Z,97297.00
2022-11-21T18:57:48.547Z,97310.00
2022-11-21T19:00:20.488Z,97302.00
2022-11-21T19:02:50.662Z,97303.00
2022-11-21T19:05:20.954Z,97301.00
2022-11-21T19:07:51.684Z,97306.00
2022-11-21T19:10:42.617Z,97305.00
2022-11-21T19:13:15.099Z,97299.00
2022-11-21T19:15:45.927Z,97296.00
2022-11-21T19:18:15.962Z,97295.00
2022-11-21T19:20:45.796Z,97299.00
2022-11-21T19:23:15.684Z,97288.00
2022-11-21T19:25:45.505Z,97302.00
2022-11-21T19:28:18.032Z,97301.00
2022-11-21T19:30:47.899Z,97295.00
2022-11-21T19:33:17.867Z,97279.00
2022-11-21T19:35:47.669Z,97289.00
2022-11-21T19:38:18.273Z,97293.00
2022-11-21T19:41:03.192Z,97300.00
2022-11-21T19:43:35.697Z,97299.00
2022-11-21T19:46:07.319Z,97305.00
2022-11-21T19:48:37.381Z,97304.00
2022-11-21T19:51:08.643Z,97307.00
2022-11-21T19:53:40.925Z,97317.00
2022-11-21T19:56:15.261Z,97314.00
2022-11-21T19:58:48.934Z,97328.00
2022-11-21T20:01:20.384Z,97335.00
2022-11-21T20:03:53.676Z,97333.00
2022-11-21T20:06:25.001Z,97325.00
2022-11-21T20:08:55.939Z,97332.00
2022-11-21T20:11:26.684Z,97328.00
2022-11-21T20:13:59.299Z,97332.00
2022-11-21T20:16:31.232Z,97330.00
2022-11-21T20:19:02.727Z,97324.00
2022-11-21T20:21:33.157Z,97322.00
2022-11-21T20:24:03.800Z,97331.00
2022-11-21T20:26:33.767Z,97319.00
2022-11-21T20:29:08.141Z,97317.00
2022-11-21T20:31:40.001Z,97317.00
2022-11-21T20:34:12.758Z,97313.00
2022-11-21T20:36:43.368Z,97316.00
2022-11-21T20:39:16.888Z,97309.00
2022-11-21T20:41:48.252Z,97297.00
2022-11-21T20:47:13.065Z,97281.00
2022-11-21T20:49:42.920Z,97270.00
2022-11-21T20:55:02.696Z,97260.00
2022-11-21T20:57:32.778Z,97257.00
2022-11-21T21:00:05.371Z,97269.00
2022-11-21T21:02:35.179Z,97263.00
2022-11-21T21:05:05.068Z,97256.00
2022-11-21T21:07:35.365Z,97266.00
2022-11-21T21:10:05.666Z,97266.00
2022-11-21T21:12:35.994Z,97256.00
2022-11-21T21:15:09.025Z,97269.00
2022-11-21T21:17:38.924Z,97257.00
2022-11-21T21:20:10.748Z,97257.00
2022-11-21T21:22:41.716Z,97249.00
2022-11-21T21:25:11.831Z,97261.00
2022-11-21T21:27:41.662Z,97261.00
2022-11-21T21:30:15.367Z,97254.00
2022-11-21T21:32:46.041Z,97249.00
2022-11-21T21:35:16.516Z,97239.00
2022-11-21T21:37:46.741Z,97232.00
2022-11-21T21:40:16.783Z,97241.00
2022-11-21T21:42:46.962Z,97233.00
2022-11-21T21:45:19.676Z,97231.00
2022-11-21T21:47:49.647Z,97229.00
2022-11-21T21:50:19.483Z,97230.00
2022-11-21T21:52:49.354Z,97232.00
2022-11-21T21:55:19.523Z,97230.00
2022-11-21T21:57:52.640Z,97228.00
2022-11-21T22:00:25.350Z,97222.00
2022-11-21T22:02:55.680Z,97208.00
2022-11-21T22:05:26.356Z,97219.00
2022-11-21T22:07:56.678Z,97213.00
2022-11-21T22:10:26.494Z,97196.00
2022-11-21T22:12:56.448Z,97205.00
2022-11-21T22:15:29.943Z,97206.00
2022-11-21T22:17:59.848Z,97208.00
2022-11-21T22:20:29.680Z,97207.00
2022-11-21T22:23:00.742Z,97207.00
2022-11-21T22:25:30.657Z,97210.00
2022-11-21T22:28:00.454Z,97214.00
2022-11-21T22:30:32.923Z,97206.00
2022-11-21T22:33:02.853Z,97208.00
2022-11-21T22:35:35.639Z,97213.00
2022-11-21T22:38:05.638Z,97221.00
2022-11-21T22:40:35.452Z,97224.00
2022-11-21T22:43:06.553Z,97226.00
2022-11-21T22:45:38.977Z,97234.00
2022-11-21T22:48:09.964Z,97221.00
2022-11-21T22:50:39.902Z,97225.00
2022-11-21T22:53:09.829Z,97224.00
2022-11-21T22:55:39.788Z,97223.00
2022-11-21T22:58:09.625Z,97234.00
2022-11-21T23:00:42.317Z,97230.00
2022-11-21T23:03:13.417Z,97235.00
2022-11-21T23:05:43.290Z,97240.00
2022-11-21T23:08:13.121Z,97222.00
2022-11-21T23:10:42.915Z,97232.00
2022-11-21T23:13:12.758Z,97231.00
2022-11-21T23:15:45.921Z,97244.00
2022-11-21T23:18:16.225Z,97248.00
2022-11-21T23:20:47.334Z,97231.00
2022-11-21T23:23:17.175Z,97241.00
2022-11-21T23:25:47.024Z,97238.00
2022-11-21T23:28:17.014Z,97230.00
2022-11-21T23:30:50.843Z,97229.00
2022-11-21T23:33:20.840Z,97230.00
2022-11-21T23:35:50.771Z,97238.00
2022-11-21T23:38:22.059Z,97230.00
2022-11-21T23:40:52.625Z,97243.00
2022-11-21T23:43:22.603Z,97228.00
2022-11-21T23:45:58.147Z,97229.00
2022-11-21T23:48:28.556Z,97228.00
2022-11-21T23:50:58.609Z,97228.00
2022-11-21T23:53:28.480Z,97221.00
2022-11-21T23:55:58.297Z,97206.00
2022-11-21T23:58:28.156Z,97209.00
